sensor_id;sensor_type;location;lat;lon;timestamp;P1;durP1;ratioP1;P2;durP2;ratioP2
61702;SDS011;47622;47.726;3.298;2023-05-07T00:01:45;2.85;;;1.27;;
61702;SDS011;47622;47.726;3.298;2023-05-07T00:04:11;1.70;;;1.30;;
61702;SDS011;47622;47.726;3.298;2023-05-07T00:06:36;4.97;;;1.65;;
61702;SDS011;47622;47.726;3.298;2023-05-07T00:09:02;2.20;;;1.50;;
61702;SDS011;47622;47.726;3.298;2023-05-07T00:11:29;2.63;;;1.45;;
61702;SDS011;47622;47.726;3.298;2023-05-07T00:13:54;3.22;;;1.55;;
61702;SDS011;47622;47.726;3.298;2023-05-07T00:16:20;1.50;;;1.40;;
61702;SDS011;47622;47.726;3.298;2023-05-07T00:18:45;5.85;;;1.63;;
61702;SDS011;47622;47.726;3.298;2023-05-07T00:21:11;4.07;;;1.52;;
61702;SDS011;47622;47.726;3.298;2023-05-07T00:23:37;1.98;;;1.40;;
61702;SDS011;47622;47.726;3.298;2023-05-07T00:26:03;2.75;;;1.50;;
61702;SDS011;47622;47.726;3.298;2023-05-07T00:28:29;2.40;;;1.40;;
61702;SDS011;47622;47.726;3.298;2023-05-07T00:30:54;4.47;;;1.70;;
61702;SDS011;47622;47.726;3.298;2023-05-07T00:33:20;2.28;;;1.60;;
61702;SDS011;47622;47.726;3.298;2023-05-07T00:35:47;3.35;;;1.70;;
61702;SDS011;47622;47.726;3.298;2023-05-07T00:38:13;2.85;;;1.75;;
61702;SDS011;47622;47.726;3.298;2023-05-07T00:40:39;3.60;;;1.40;;
61702;SDS011;47622;47.726;3.298;2023-05-07T00:43:05;2.75;;;1.52;;
61702;SDS011;47622;47.726;3.298;2023-05-07T00:45:32;2.22;;;1.50;;
61702;SDS011;47622;47.726;3.298;2023-05-07T00:48:01;3.05;;;1.58;;
61702;SDS011;47622;47.726;3.298;2023-05-07T00:50:28;3.83;;;1.60;;
61702;SDS011;47622;47.726;3.298;2023-05-07T00:52:54;4.32;;;1.67;;
61702;SDS011;47622;47.726;3.298;2023-05-07T00:55:21;2.53;;;1.55;;
61702;SDS011;47622;47.726;3.298;2023-05-07T00:57:47;3.40;;;1.40;;
61702;SDS011;47622;47.726;3.298;2023-05-07T01:00:14;2.50;;;1.80;;
61702;SDS011;47622;47.726;3.298;2023-05-07T01:02:40;4.15;;;1.73;;
61702;SDS011;47622;47.726;3.298;2023-05-07T01:05:06;2.67;;;1.55;;
61702;SDS011;47622;47.726;3.298;2023-05-07T01:07:34;3.78;;;1.75;;
61702;SDS011;47622;47.726;3.298;2023-05-07T01:10:02;3.25;;;1.70;;
61702;SDS011;47622;47.726;3.298;2023-05-07T01:12:29;2.22;;;1.52;;
61702;SDS011;47622;47.726;3.298;2023-05-07T01:14:56;3.05;;;1.52;;
61702;SDS011;47622;47.726;3.298;2023-05-07T01:17:22;3.28;;;2.00;;
61702;SDS011;47622;47.726;3.298;2023-05-07T01:19:48;4.43;;;2.60;;
61702;SDS011;47622;47.726;3.298;2023-05-07T01:22:14;1.67;;;1.55;;
61702;SDS011;47622;47.726;3.298;2023-05-07T01:24:41;5.15;;;2.00;;
61702;SDS011;47622;47.726;3.298;2023-05-07T01:27:07;2.00;;;1.42;;
61702;SDS011;47622;47.726;3.298;2023-05-07T01:29:33;1.70;;;1.35;;
61702;SDS011;47622;47.726;3.298;2023-05-07T01:31:59;3.47;;;1.63;;
61702;SDS011;47622;47.726;3.298;2023-05-07T01:34:28;5.20;;;1.60;;
61702;SDS011;47622;47.726;3.298;2023-05-07T01:36:56;5.15;;;1.75;;
61702;SDS011;47622;47.726;3.298;2023-05-07T01:39:27;3.72;;;1.80;;
61702;SDS011;47622;47.726;3.298;2023-05-07T01:41:57;1.67;;;1.58;;
61702;SDS011;47622;47.726;3.298;2023-05-07T01:44:24;3.97;;;1.98;;
61702;SDS011;47622;47.726;3.298;2023-05-07T01:46:51;2.45;;;1.75;;
61702;SDS011;47622;47.726;3.298;2023-05-07T01:49:17;3.83;;;1.60;;
61702;SDS011;47622;47.726;3.298;2023-05-07T01:51:43;2.00;;;1.63;;
61702;SDS011;47622;47.726;3.298;2023-05-07T01:54:09;4.13;;;1.60;;
61702;SDS011;47622;47.726;3.298;2023-05-07T01:56:35;4.82;;;1.98;;
61702;SDS011;47622;47.726;3.298;2023-05-07T01:59:02;3.78;;;1.42;;
61702;SDS011;47622;47.726;3.298;2023-05-07T02:01:27;2.30;;;1.60;;
61702;SDS011;47622;47.726;3.298;2023-05-07T02:03:53;3.28;;;1.90;;
61702;SDS011;47622;47.726;3.298;2023-05-07T02:06:19;3.35;;;1.60;;
61702;SDS011;47622;47.726;3.298;2023-05-07T02:08:45;4.13;;;2.20;;
61702;SDS011;47622;47.726;3.298;2023-05-07T02:11:12;2.38;;;1.70;;
61702;SDS011;47622;47.726;3.298;2023-05-07T02:13:38;4.10;;;1.83;;
61702;SDS011;47622;47.726;3.298;2023-05-07T02:16:04;4.57;;;1.60;;
61702;SDS011;47622;47.726;3.298;2023-05-07T02:18:29;5.15;;;1.75;;
61702;SDS011;47622;47.726;3.298;2023-05-07T02:20:55;11.52;;;2.00;;
61702;SDS011;47622;47.726;3.298;2023-05-07T02:23:21;1.55;;;1.45;;
61702;SDS011;47622;47.726;3.298;2023-05-07T02:25:46;2.45;;;1.65;;
61702;SDS011;47622;47.726;3.298;2023-05-07T02:28:12;3.40;;;1.50;;
61702;SDS011;47622;47.726;3.298;2023-05-07T02:30:38;4.63;;;1.50;;
61702;SDS011;47622;47.726;3.298;2023-05-07T02:33:05;2.63;;;1.83;;
61702;SDS011;47622;47.726;3.298;2023-05-07T02:35:31;2.45;;;1.42;;
61702;SDS011;47622;47.726;3.298;2023-05-07T02:37:57;3.80;;;1.75;;
61702;SDS011;47622;47.726;3.298;2023-05-07T02:40:22;3.60;;;1.73;;
61702;SDS011;47622;47.726;3.298;2023-05-07T02:42:48;3.10;;;1.63;;
61702;SDS011;47622;47.726;3.298;2023-05-07T02:45:13;2.22;;;1.70;;
61702;SDS011;47622;47.726;3.298;2023-05-07T02:47:39;1.77;;;1.40;;
61702;SDS011;47622;47.726;3.298;2023-05-07T02:50:05;1.63;;;1.30;;
61702;SDS011;47622;47.726;3.298;2023-05-07T02:52:31;2.47;;;1.77;;
61702;SDS011;47622;47.726;3.298;2023-05-07T02:54:56;2.13;;;1.80;;
61702;SDS011;47622;47.726;3.298;2023-05-07T02:57:22;3.50;;;1.67;;
61702;SDS011;47622;47.726;3.298;2023-05-07T02:59:47;3.03;;;1.40;;
61702;SDS011;47622;47.726;3.298;2023-05-07T03:02:13;1.95;;;1.70;;
61702;SDS011;47622;47.726;3.298;2023-05-07T03:04:39;3.35;;;1.70;;
61702;SDS011;47622;47.726;3.298;2023-05-07T03:07:05;3.20;;;1.73;;
61702;SDS011;47622;47.726;3.298;2023-05-07T03:09:30;2.50;;;1.50;;
61702;SDS011;47622;47.726;3.298;2023-05-07T03:11:56;2.05;;;1.50;;
61702;SDS011;47622;47.726;3.298;2023-05-07T03:14:23;2.72;;;1.65;;
61702;SDS011;47622;47.726;3.298;2023-05-07T03:16:50;3.47;;;1.50;;
61702;SDS011;47622;47.726;3.298;2023-05-07T03:19:15;2.80;;;1.70;;
61702;SDS011;47622;47.726;3.298;2023-05-07T03:21:41;4.15;;;1.80;;
61702;SDS011;47622;47.726;3.298;2023-05-07T03:24:07;3.22;;;1.60;;
61702;SDS011;47622;47.726;3.298;2023-05-07T03:26:32;2.08;;;1.40;;
61702;SDS011;47622;47.726;3.298;2023-05-07T03:28:58;1.98;;;1.50;;
61702;SDS011;47622;47.726;3.298;2023-05-07T03:31:23;2.92;;;1.75;;
61702;SDS011;47622;47.726;3.298;2023-05-07T03:33:50;2.70;;;1.70;;
61702;SDS011;47622;47.726;3.298;2023-05-07T03:36:16;3.55;;;1.80;;
61702;SDS011;47622;47.726;3.298;2023-05-07T03:38:42;3.05;;;1.88;;
61702;SDS011;47622;47.726;3.298;2023-05-07T03:41:08;4.53;;;1.95;;
61702;SDS011;47622;47.726;3.298;2023-05-07T03:43:34;2.10;;;1.65;;
61702;SDS011;47622;47.726;3.298;2023-05-07T03:45:59;2.30;;;1.48;;
61702;SDS011;47622;47.726;3.298;2023-05-07T03:48:25;2.60;;;1.75;;
61702;SDS011;47622;47.726;3.298;2023-05-07T03:50:51;2.20;;;1.85;;
61702;SDS011;47622;47.726;3.298;2023-05-07T03:53:16;4.45;;;1.80;;
61702;SDS011;47622;47.726;3.298;2023-05-07T03:55:42;2.30;;;1.83;;
61702;SDS011;47622;47.726;3.298;2023-05-07T03:58:07;3.38;;;1.90;;
61702;SDS011;47622;47.726;3.298;2023-05-07T04:00:33;2.45;;;2.25;;
61702;SDS011;47622;47.726;3.298;2023-05-07T04:03:03;4.55;;;1.80;;
61702;SDS011;47622;47.726;3.298;2023-05-07T04:05:29;6.00;;;2.53;;
61702;SDS011;47622;47.726;3.298;2023-05-07T04:07:55;4.55;;;2.10;;
61702;SDS011;47622;47.726;3.298;2023-05-07T04:10:21;2.40;;;2.13;;
61702;SDS011;47622;47.726;3.298;2023-05-07T04:12:46;3.33;;;2.00;;
61702;SDS011;47622;47.726;3.298;2023-05-07T04:15:12;4.80;;;2.10;;
61702;SDS011;47622;47.726;3.298;2023-05-07T04:17:37;3.15;;;2.03;;
61702;SDS011;47622;47.726;3.298;2023-05-07T04:20:03;2.75;;;2.10;;
61702;SDS011;47622;47.726;3.298;2023-05-07T04:22:29;2.33;;;2.00;;
61702;SDS011;47622;47.726;3.298;2023-05-07T04:24:55;4.70;;;2.00;;
61702;SDS011;47622;47.726;3.298;2023-05-07T04:27:21;2.17;;;1.92;;
61702;SDS011;47622;47.726;3.298;2023-05-07T04:29:46;2.97;;;1.77;;
61702;SDS011;47622;47.726;3.298;2023-05-07T04:32:12;1.67;;;1.50;;
61702;SDS011;47622;47.726;3.298;2023-05-07T04:34:38;3.35;;;2.03;;
61702;SDS011;47622;47.726;3.298;2023-05-07T04:37:04;2.72;;;2.05;;
61702;SDS011;47622;47.726;3.298;2023-05-07T04:39:29;3.90;;;2.05;;
61702;SDS011;47622;47.726;3.298;2023-05-07T04:41:54;2.90;;;2.08;;
61702;SDS011;47622;47.726;3.298;2023-05-07T04:44:20;2.05;;;1.73;;
61702;SDS011;47622;47.726;3.298;2023-05-07T04:46:46;3.65;;;1.80;;
61702;SDS011;47622;47.726;3.298;2023-05-07T04:49:11;3.30;;;1.90;;
61702;SDS011;47622;47.726;3.298;2023-05-07T04:51:37;2.47;;;1.90;;
61702;SDS011;47622;47.726;3.298;2023-05-07T04:54:03;2.63;;;1.92;;
61702;SDS011;47622;47.726;3.298;2023-05-07T04:56:29;2.60;;;1.88;;
61702;SDS011;47622;47.726;3.298;2023-05-07T04:58:55;3.15;;;2.13;;
61702;SDS011;47622;47.726;3.298;2023-05-07T05:01:20;2.33;;;2.03;;
61702;SDS011;47622;47.726;3.298;2023-05-07T05:03:46;3.45;;;2.17;;
61702;SDS011;47622;47.726;3.298;2023-05-07T05:06:11;3.50;;;2.50;;
61702;SDS011;47622;47.726;3.298;2023-05-07T05:08:37;3.38;;;2.10;;
61702;SDS011;47622;47.726;3.298;2023-05-07T05:11:02;7.25;;;2.40;;
61702;SDS011;47622;47.726;3.298;2023-05-07T05:13:28;3.35;;;2.13;;
61702;SDS011;47622;47.726;3.298;2023-05-07T05:15:54;4.55;;;2.05;;
61702;SDS011;47622;47.726;3.298;2023-05-07T05:18:19;3.20;;;2.20;;
61702;SDS011;47622;47.726;3.298;2023-05-07T05:20:45;3.33;;;2.00;;
61702;SDS011;47622;47.726;3.298;2023-05-07T05:23:11;3.33;;;1.90;;
61702;SDS011;47622;47.726;3.298;2023-05-07T05:25:36;3.22;;;2.03;;
61702;SDS011;47622;47.726;3.298;2023-05-07T05:28:02;3.17;;;2.03;;
61702;SDS011;47622;47.726;3.298;2023-05-07T05:30:28;2.83;;;1.90;;
61702;SDS011;47622;47.726;3.298;2023-05-07T05:32:53;3.22;;;2.47;;
61702;SDS011;47622;47.726;3.298;2023-05-07T05:35:19;3.13;;;2.28;;
61702;SDS011;47622;47.726;3.298;2023-05-07T05:37:44;6.18;;;2.72;;
61702;SDS011;47622;47.726;3.298;2023-05-07T05:40:11;3.00;;;2.60;;
61702;SDS011;47622;47.726;3.298;2023-05-07T05:42:37;4.15;;;2.97;;
61702;SDS011;47622;47.726;3.298;2023-05-07T05:45:03;4.18;;;3.05;;
61702;SDS011;47622;47.726;3.298;2023-05-07T05:47:29;4.13;;;3.30;;
61702;SDS011;47622;47.726;3.298;2023-05-07T05:49:54;7.88;;;3.20;;
61702;SDS011;47622;47.726;3.298;2023-05-07T05:52:21;7.75;;;4.03;;
61702;SDS011;47622;47.726;3.298;2023-05-07T05:54:49;6.50;;;4.00;;
61702;SDS011;47622;47.726;3.298;2023-05-07T05:57:15;5.78;;;4.05;;
61702;SDS011;47622;47.726;3.298;2023-05-07T05:59:40;4.25;;;3.35;;
61702;SDS011;47622;47.726;3.298;2023-05-07T06:02:06;6.40;;;3.90;;
61702;SDS011;47622;47.726;3.298;2023-05-07T06:04:32;4.80;;;3.92;;
61702;SDS011;47622;47.726;3.298;2023-05-07T06:06:57;8.82;;;4.20;;
61702;SDS011;47622;47.726;3.298;2023-05-07T06:09:23;4.65;;;4.15;;
61702;SDS011;47622;47.726;3.298;2023-05-07T06:11:50;6.72;;;4.13;;
61702;SDS011;47622;47.726;3.298;2023-05-07T06:14:15;5.22;;;4.20;;
61702;SDS011;47622;47.726;3.298;2023-05-07T06:16:41;10.02;;;4.30;;
61702;SDS011;47622;47.726;3.298;2023-05-07T06:19:07;4.47;;;3.78;;
61702;SDS011;47622;47.726;3.298;2023-05-07T06:21:32;6.13;;;4.00;;
61702;SDS011;47622;47.726;3.298;2023-05-07T06:23:58;4.78;;;3.45;;
61702;SDS011;47622;47.726;3.298;2023-05-07T06:26:23;7.07;;;3.83;;
61702;SDS011;47622;47.726;3.298;2023-05-07T06:28:49;4.38;;;3.00;;
61702;SDS011;47622;47.726;3.298;2023-05-07T06:31:15;6.07;;;3.53;;
61702;SDS011;47622;47.726;3.298;2023-05-07T06:33:42;5.72;;;3.08;;
61702;SDS011;47622;47.726;3.298;2023-05-07T06:36:09;5.18;;;3.13;;
61702;SDS011;47622;47.726;3.298;2023-05-07T06:38:35;5.93;;;3.70;;
61702;SDS011;47622;47.726;3.298;2023-05-07T06:41:00;5.47;;;3.70;;
61702;SDS011;47622;47.726;3.298;2023-05-07T06:43:26;6.10;;;4.07;;
61702;SDS011;47622;47.726;3.298;2023-05-07T06:45:51;5.50;;;4.10;;
61702;SDS011;47622;47.726;3.298;2023-05-07T06:48:16;5.15;;;3.90;;
61702;SDS011;47622;47.726;3.298;2023-05-07T06:50:42;4.50;;;3.65;;
61702;SDS011;47622;47.726;3.298;2023-05-07T06:53:07;5.60;;;4.45;;
61702;SDS011;47622;47.726;3.298;2023-05-07T06:55:33;6.53;;;3.67;;
61702;SDS011;47622;47.726;3.298;2023-05-07T06:57:58;5.25;;;4.28;;
61702;SDS011;47622;47.726;3.298;2023-05-07T07:00:26;6.00;;;3.50;;
61702;SDS011;47622;47.726;3.298;2023-05-07T07:02:53;4.47;;;3.05;;
61702;SDS011;47622;47.726;3.298;2023-05-07T07:05:19;8.30;;;3.38;;
61702;SDS011;47622;47.726;3.298;2023-05-07T07:07:44;4.05;;;2.65;;
61702;SDS011;47622;47.726;3.298;2023-05-07T07:12:42;2.35;;;1.90;;
61702;SDS011;47622;47.726;3.298;2023-05-07T07:15:09;3.65;;;1.90;;
61702;SDS011;47622;47.726;3.298;2023-05-07T07:17:34;2.15;;;1.90;;
61702;SDS011;47622;47.726;3.298;2023-05-07T07:20:00;3.10;;;1.90;;
61702;SDS011;47622;47.726;3.298;2023-05-07T07:22:27;3.30;;;1.40;;
61702;SDS011;47622;47.726;3.298;2023-05-07T07:24:53;1.38;;;1.25;;
61702;SDS011;47622;47.726;3.298;2023-05-07T07:27:19;2.00;;;1.73;;
61702;SDS011;47622;47.726;3.298;2023-05-07T07:29:45;1.27;;;1.17;;
61702;SDS011;47622;47.726;3.298;2023-05-07T07:32:10;7.40;;;1.20;;
61702;SDS011;47622;47.726;3.298;2023-05-07T07:34:36;5.13;;;1.73;;
61702;SDS011;47622;47.726;3.298;2023-05-07T07:37:01;1.30;;;1.15;;
61702;SDS011;47622;47.726;3.298;2023-05-07T07:39:30;1.10;;;1.00;;
61702;SDS011;47622;47.726;3.298;2023-05-07T07:41:56;1.65;;;1.30;;
61702;SDS011;47622;47.726;3.298;2023-05-07T07:44:22;1.58;;;0.85;;
61702;SDS011;47622;47.726;3.298;2023-05-07T07:46:47;1.90;;;1.20;;
61702;SDS011;47622;47.726;3.298;2023-05-07T07:49:13;2.13;;;1.02;;
61702;SDS011;47622;47.726;3.298;2023-05-07T07:51:39;1.33;;;1.20;;
61702;SDS011;47622;47.726;3.298;2023-05-07T07:54:04;2.45;;;1.20;;
61702;SDS011;47622;47.726;3.298;2023-05-07T07:56:31;1.10;;;1.00;;
61702;SDS011;47622;47.726;3.298;2023-05-07T07:58:58;1.17;;;1.00;;
61702;SDS011;47622;47.726;3.298;2023-05-07T08:01:23;0.85;;;0.85;;
61702;SDS011;47622;47.726;3.298;2023-05-07T08:03:49;1.30;;;1.05;;
61702;SDS011;47622;47.726;3.298;2023-05-07T08:06:16;1.60;;;0.93;;
61702;SDS011;47622;47.726;3.298;2023-05-07T08:08:42;1.20;;;0.95;;
61702;SDS011;47622;47.726;3.298;2023-05-07T08:11:07;1.52;;;0.93;;
61702;SDS011;47622;47.726;3.298;2023-05-07T08:13:33;1.08;;;0.98;;
61702;SDS011;47622;47.726;3.298;2023-05-07T08:15:58;1.67;;;0.90;;
61702;SDS011;47622;47.726;3.298;2023-05-07T08:18:24;3.03;;;0.90;;
61702;SDS011;47622;47.726;3.298;2023-05-07T08:20:50;1.67;;;0.90;;
61702;SDS011;47622;47.726;3.298;2023-05-07T08:23:16;4.00;;;1.17;;
61702;SDS011;47622;47.726;3.298;2023-05-07T08:25:42;2.50;;;1.00;;
61702;SDS011;47622;47.726;3.298;2023-05-07T08:28:10;3.03;;;0.90;;
61702;SDS011;47622;47.726;3.298;2023-05-07T08:30:35;1.55;;;0.93;;
61702;SDS011;47622;47.726;3.298;2023-05-07T08:33:01;1.10;;;0.95;;
61702;SDS011;47622;47.726;3.298;2023-05-07T08:35:27;1.05;;;0.93;;
61702;SDS011;47622;47.726;3.298;2023-05-07T08:37:53;0.90;;;0.90;;
61702;SDS011;47622;47.726;3.298;2023-05-07T08:40:19;2.10;;;0.98;;
61702;SDS011;47622;47.726;3.298;2023-05-07T08:42:48;1.13;;;1.00;;
61702;SDS011;47622;47.726;3.298;2023-05-07T08:45:16;1.73;;;1.00;;
61702;SDS011;47622;47.726;3.298;2023-05-07T08:47:44;1.35;;;1.15;;
61702;SDS011;47622;47.726;3.298;2023-05-07T08:50:13;2.45;;;1.10;;
61702;SDS011;47622;47.726;3.298;2023-05-07T08:52:39;2.40;;;1.10;;
61702;SDS011;47622;47.726;3.298;2023-05-07T08:55:06;1.70;;;0.95;;
61702;SDS011;47622;47.726;3.298;2023-05-07T08:57:32;1.10;;;1.00;;
61702;SDS011;47622;47.726;3.298;2023-05-07T08:59:58;3.83;;;1.00;;
61702;SDS011;47622;47.726;3.298;2023-05-07T09:02:23;1.08;;;1.00;;
61702;SDS011;47622;47.726;3.298;2023-05-07T09:04:50;1.30;;;1.00;;
61702;SDS011;47622;47.726;3.298;2023-05-07T09:07:16;2.95;;;1.05;;
61702;SDS011;47622;47.726;3.298;2023-05-07T09:09:43;1.30;;;0.90;;
61702;SDS011;47622;47.726;3.298;2023-05-07T09:12:09;0.90;;;0.90;;
61702;SDS011;47622;47.726;3.298;2023-05-07T09:14:35;1.58;;;1.10;;
61702;SDS011;47622;47.726;3.298;2023-05-07T09:17:00;1.27;;;1.10;;
61702;SDS011;47622;47.726;3.298;2023-05-07T09:19:26;1.45;;;1.00;;
61702;SDS011;47622;47.726;3.298;2023-05-07T09:21:59;2.25;;;0.95;;
61702;SDS011;47622;47.726;3.298;2023-05-07T09:24:28;0.90;;;0.90;;
61702;SDS011;47622;47.726;3.298;2023-05-07T09:26:58;2.05;;;1.00;;
61702;SDS011;47622;47.726;3.298;2023-05-07T09:29:25;2.20;;;0.93;;
61702;SDS011;47622;47.726;3.298;2023-05-07T09:32:00;0.95;;;0.95;;
61702;SDS011;47622;47.726;3.298;2023-05-07T09:34:32;1.52;;;1.20;;
61702;SDS011;47622;47.726;3.298;2023-05-07T09:37:02;1.13;;;1.00;;
61702;SDS011;47622;47.726;3.298;2023-05-07T09:39:49;0.80;;;0.80;;
61702;SDS011;47622;47.726;3.298;2023-05-07T09:42:14;1.02;;;0.98;;
61702;SDS011;47622;47.726;3.298;2023-05-07T09:44:40;1.17;;;1.05;;
61702;SDS011;47622;47.726;3.298;2023-05-07T09:47:08;1.45;;;1.00;;
61702;SDS011;47622;47.726;3.298;2023-05-07T09:49:35;1.63;;;1.20;;
61702;SDS011;47622;47.726;3.298;2023-05-07T09:52:02;1.80;;;1.08;;
61702;SDS011;47622;47.726;3.298;2023-05-07T09:54:32;1.23;;;1.13;;
61702;SDS011;47622;47.726;3.298;2023-05-07T09:56:58;1.73;;;1.10;;
61702;SDS011;47622;47.726;3.298;2023-05-07T09:59:27;1.52;;;1.05;;
61702;SDS011;47622;47.726;3.298;2023-05-07T10:01:56;1.85;;;1.20;;
61702;SDS011;47622;47.726;3.298;2023-05-07T10:04:24;3.00;;;1.35;;
61702;SDS011;47622;47.726;3.298;2023-05-07T10:06:51;1.75;;;1.27;;
61702;SDS011;47622;47.726;3.298;2023-05-07T10:09:18;1.67;;;1.58;;
61702;SDS011;47622;47.726;3.298;2023-05-07T10:11:44;1.83;;;1.60;;
61702;SDS011;47622;47.726;3.298;2023-05-07T10:14:11;1.77;;;1.65;;
61702;SDS011;47622;47.726;3.298;2023-05-07T10:16:37;2.70;;;1.60;;
61702;SDS011;47622;47.726;3.298;2023-05-07T10:19:03;4.22;;;1.90;;
61702;SDS011;47622;47.726;3.298;2023-05-07T10:21:29;1.90;;;1.70;;
61702;SDS011;47622;47.726;3.298;2023-05-07T10:23:59;1.75;;;1.60;;
61702;SDS011;47622;47.726;3.298;2023-05-07T10:26:47;2.08;;;1.60;;
61702;SDS011;47622;47.726;3.298;2023-05-07T10:31:53;1.92;;;1.42;;
61702;SDS011;47622;47.726;3.298;2023-05-07T10:34:26;2.17;;;1.52;;
61702;SDS011;47622;47.726;3.298;2023-05-07T10:36:57;1.73;;;1.38;;
61702;SDS011;47622;47.726;3.298;2023-05-07T10:39:23;3.28;;;1.52;;
61702;SDS011;47622;47.726;3.298;2023-05-07T10:41:49;2.35;;;1.55;;
61702;SDS011;47622;47.726;3.298;2023-05-07T10:44:25;1.60;;;1.48;;
61702;SDS011;47622;47.726;3.298;2023-05-07T10:47:11;2.15;;;1.58;;
61702;SDS011;47622;47.726;3.298;2023-05-07T10:52:21;1.58;;;1.20;;
61702;SDS011;47622;47.726;3.298;2023-05-07T10:55:18;1.23;;;1.13;;
61702;SDS011;47622;47.726;3.298;2023-05-07T11:05:26;4.30;;;1.30;;
61702;SDS011;47622;47.726;3.298;2023-05-07T11:08:00;4.75;;;1.50;;
61702;SDS011;47622;47.726;3.298;2023-05-07T11:13:40;3.65;;;1.20;;
61702;SDS011;47622;47.726;3.298;2023-05-07T11:16:21;2.20;;;1.30;;
61702;SDS011;47622;47.726;3.298;2023-05-07T11:18:52;2.72;;;1.10;;
61702;SDS011;47622;47.726;3.298;2023-05-07T11:24:08;2.17;;;0.95;;
61702;SDS011;47622;47.726;3.298;2023-05-07T11:26:42;1.45;;;1.10;;
61702;SDS011;47622;47.726;3.298;2023-05-07T11:29:13;2.80;;;1.15;;
61702;SDS011;47622;47.726;3.298;2023-05-07T11:31:48;2.92;;;1.20;;
61702;SDS011;47622;47.726;3.298;2023-05-07T11:34:19;2.38;;;1.10;;
61702;SDS011;47622;47.726;3.298;2023-05-07T11:36:46;1.63;;;1.02;;
61702;SDS011;47622;47.726;3.298;2023-05-07T11:39:22;2.00;;;1.00;;
61702;SDS011;47622;47.726;3.298;2023-05-07T11:41:52;1.10;;;1.05;;
61702;SDS011;47622;47.726;3.298;2023-05-07T11:44:17;1.40;;;1.20;;
61702;SDS011;47622;47.726;3.298;2023-05-07T11:46:43;4.00;;;1.33;;
61702;SDS011;47622;47.726;3.298;2023-05-07T11:49:10;1.42;;;1.20;;
61702;SDS011;47622;47.726;3.298;2023-05-07T11:51:36;1.88;;;1.10;;
61702;SDS011;47622;47.726;3.298;2023-05-07T11:54:03;1.80;;;1.10;;
61702;SDS011;47622;47.726;3.298;2023-05-07T11:56:34;1.23;;;1.10;;
61702;SDS011;47622;47.726;3.298;2023-05-07T11:59:00;1.10;;;1.00;;
61702;SDS011;47622;47.726;3.298;2023-05-07T12:01:26;1.90;;;1.00;;
61702;SDS011;47622;47.726;3.298;2023-05-07T12:03:53;1.25;;;1.02;;
61702;SDS011;47622;47.726;3.298;2023-05-07T12:06:20;2.75;;;1.17;;
61702;SDS011;47622;47.726;3.298;2023-05-07T12:08:45;1.35;;;0.98;;
61702;SDS011;47622;47.726;3.298;2023-05-07T12:11:24;1.92;;;1.10;;
61702;SDS011;47622;47.726;3.298;2023-05-07T12:13:50;2.70;;;1.15;;
61702;SDS011;47622;47.726;3.298;2023-05-07T12:16:17;1.92;;;1.10;;
61702;SDS011;47622;47.726;3.298;2023-05-07T12:18:43;1.60;;;1.05;;
61702;SDS011;47622;47.726;3.298;2023-05-07T12:21:09;1.75;;;1.10;;
61702;SDS011;47622;47.726;3.298;2023-05-07T12:23:36;2.85;;;1.02;;
61702;SDS011;47622;47.726;3.298;2023-05-07T12:26:02;1.60;;;1.30;;
61702;SDS011;47622;47.726;3.298;2023-05-07T12:28:28;1.77;;;1.30;;
61702;SDS011;47622;47.726;3.298;2023-05-07T12:30:54;2.75;;;1.25;;
61702;SDS011;47622;47.726;3.298;2023-05-07T12:33:23;1.63;;;1.20;;
61702;SDS011;47622;47.726;3.298;2023-05-07T12:35:52;2.50;;;1.30;;
61702;SDS011;47622;47.726;3.298;2023-05-07T12:38:19;1.50;;;1.20;;
61702;SDS011;47622;47.726;3.298;2023-05-07T12:40:45;2.42;;;1.23;;
61702;SDS011;47622;47.726;3.298;2023-05-07T12:43:16;1.20;;;1.10;;
61702;SDS011;47622;47.726;3.298;2023-05-07T12:45:43;2.65;;;1.20;;
61702;SDS011;47622;47.726;3.298;2023-05-07T12:48:09;2.85;;;1.30;;
61702;SDS011;47622;47.726;3.298;2023-05-07T12:50:36;3.47;;;1.30;;
61702;SDS011;47622;47.726;3.298;2023-05-07T12:53:05;2.13;;;1.50;;
61702;SDS011;47622;47.726;3.298;2023-05-07T12:55:34;1.60;;;1.00;;
61702;SDS011;47622;47.726;3.298;2023-05-07T12:58:06;1.98;;;1.15;;
61702;SDS011;47622;47.726;3.298;2023-05-07T13:00:33;3.28;;;1.20;;
61702;SDS011;47622;47.726;3.298;2023-05-07T13:02:59;4.65;;;1.33;;
61702;SDS011;47622;47.726;3.298;2023-05-07T13:05:25;1.17;;;1.08;;
61702;SDS011;47622;47.726;3.298;2023-05-07T13:07:54;4.07;;;1.30;;
61702;SDS011;47622;47.726;3.298;2023-05-07T13:10:21;3.88;;;1.50;;
61702;SDS011;47622;47.726;3.298;2023-05-07T13:12:48;2.20;;;1.15;;
61702;SDS011;47622;47.726;3.298;2023-05-07T13:15:14;3.42;;;1.50;;
61702;SDS011;47622;47.726;3.298;2023-05-07T13:17:40;2.88;;;1.30;;
61702;SDS011;47622;47.726;3.298;2023-05-07T13:20:05;1.38;;;1.25;;
61702;SDS011;47622;47.726;3.298;2023-05-07T13:22:33;1.48;;;1.20;;
61702;SDS011;47622;47.726;3.298;2023-05-07T13:24:58;1.30;;;1.15;;
61702;SDS011;47622;47.726;3.298;2023-05-07T13:27:24;2.47;;;1.40;;
61702;SDS011;47622;47.726;3.298;2023-05-07T13:29:50;1.50;;;1.40;;
61702;SDS011;47622;47.726;3.298;2023-05-07T13:32:16;2.22;;;1.30;;
61702;SDS011;47622;47.726;3.298;2023-05-07T13:34:41;2.10;;;1.23;;
61702;SDS011;47622;47.726;3.298;2023-05-07T13:37:07;2.25;;;1.20;;
61702;SDS011;47622;47.726;3.298;2023-05-07T13:39:33;2.97;;;1.20;;
61702;SDS011;47622;47.726;3.298;2023-05-07T13:41:58;2.35;;;1.50;;
61702;SDS011;47622;47.726;3.298;2023-05-07T13:44:24;3.20;;;1.25;;
61702;SDS011;47622;47.726;3.298;2023-05-07T13:46:49;1.38;;;1.20;;
61702;SDS011;47622;47.726;3.298;2023-05-07T13:49:15;2.08;;;1.40;;
61702;SDS011;47622;47.726;3.298;2023-05-07T13:51:40;3.35;;;1.50;;
61702;SDS011;47622;47.726;3.298;2023-05-07T13:54:06;6.32;;;1.55;;
61702;SDS011;47622;47.726;3.298;2023-05-07T13:56:32;1.80;;;1.45;;
61702;SDS011;47622;47.726;3.298;2023-05-07T13:58:59;2.33;;;1.70;;
61702;SDS011;47622;47.726;3.298;2023-05-07T14:01:24;2.80;;;1.80;;
61702;SDS011;47622;47.726;3.298;2023-05-07T14:03:50;3.10;;;1.98;;
61702;SDS011;47622;47.726;3.298;2023-05-07T14:06:16;2.60;;;1.80;;
61702;SDS011;47622;47.726;3.298;2023-05-07T14:08:41;1.70;;;1.60;;
61702;SDS011;47622;47.726;3.298;2023-05-07T14:11:07;2.40;;;1.50;;
61702;SDS011;47622;47.726;3.298;2023-05-07T14:13:32;2.60;;;1.70;;
61702;SDS011;47622;47.726;3.298;2023-05-07T14:15:59;1.75;;;1.50;;
61702;SDS011;47622;47.726;3.298;2023-05-07T14:18:25;2.17;;;1.40;;
61702;SDS011;47622;47.726;3.298;2023-05-07T14:20:53;1.30;;;1.20;;
61702;SDS011;47622;47.726;3.298;2023-05-07T14:23:20;2.20;;;1.40;;
61702;SDS011;47622;47.726;3.298;2023-05-07T14:25:51;1.25;;;1.15;;
61702;SDS011;47622;47.726;3.298;2023-05-07T14:28:17;2.08;;;1.65;;
61702;SDS011;47622;47.726;3.298;2023-05-07T14:30:43;3.72;;;1.50;;
61702;SDS011;47622;47.726;3.298;2023-05-07T14:33:09;2.42;;;1.38;;
61702;SDS011;47622;47.726;3.298;2023-05-07T14:35:35;1.33;;;1.20;;
61702;SDS011;47622;47.726;3.298;2023-05-07T14:38:00;3.22;;;1.65;;
61702;SDS011;47622;47.726;3.298;2023-05-07T14:40:26;2.40;;;1.50;;
61702;SDS011;47622;47.726;3.298;2023-05-07T14:42:52;2.80;;;1.40;;
61702;SDS011;47622;47.726;3.298;2023-05-07T14:45:17;2.55;;;1.40;;
61702;SDS011;47622;47.726;3.298;2023-05-07T14:47:43;3.58;;;1.67;;
61702;SDS011;47622;47.726;3.298;2023-05-07T14:50:08;1.88;;;1.67;;
61702;SDS011;47622;47.726;3.298;2023-05-07T14:52:34;3.53;;;2.08;;
61702;SDS011;47622;47.726;3.298;2023-05-07T14:54:59;4.50;;;2.00;;
61702;SDS011;47622;47.726;3.298;2023-05-07T14:57:25;2.30;;;1.70;;
61702;SDS011;47622;47.726;3.298;2023-05-07T14:59:50;3.53;;;1.88;;
61702;SDS011;47622;47.726;3.298;2023-05-07T15:02:16;3.28;;;2.10;;
61702;SDS011;47622;47.726;3.298;2023-05-07T15:04:42;7.10;;;2.38;;
61702;SDS011;47622;47.726;3.298;2023-05-07T15:07:13;4.28;;;1.90;;